sensor_id;sensor_type;location;lat;lon;timestamp;pressure;altitude;pressure_sealevel;temperature;humidity
6829;BME280;17930;48.592;8.868;2023-07-02T00:01:18;96221.28;;;16.80;100.00
6829;BME280;17930;48.592;8.868;2023-07-02T00:03:45;96229.91;;;16.68;100.00
6829;BME280;17930;48.592;8.868;2023-07-02T00:06:11;96228.03;;;16.69;100.00
6829;BME280;17930;48.592;8.868;2023-07-02T00:08:38;96227.34;;;16.60;100.00
6829;BME280;17930;48.592;8.868;2023-07-02T00:11:06;96216.53;;;16.73;100.00
6829;BME280;17930;48.592;8.868;2023-07-02T00:13:32;96212.00;;;16.74;100.00
6829;BME280;17930;48.592;8.868;2023-07-02T00:15:59;96224.72;;;16.60;100.00
6829;BME280;17930;48.592;8.868;2023-07-02T00:18:27;96227.41;;;16.51;100.00
6829;BME280;17930;48.592;8.868;2023-07-02T00:21:00;96230.94;;;16.55;100.00
6829;BME280;17930;48.592;8.868;2023-07-02T00:23:27;96220.41;;;16.55;100.00
6829;BME280;17930;48.592;8.868;2023-07-02T00:25:54;96232.72;;;16.63;100.00
6829;BME280;17930;48.592;8.868;2023-07-02T00:28:20;96230.22;;;16.67;100.00
6829;BME280;17930;48.592;8.868;2023-07-02T00:30:47;96226.41;;;16.76;100.00
6829;BME280;17930;48.592;8.868;2023-07-02T00:33:14;96229.03;;;16.76;100.00
6829;BME280;17930;48.592;8.868;2023-07-02T00:35:43;96229.25;;;16.71;100.00
6829;BME280;17930;48.592;8.868;2023-07-02T00:38:09;96226.75;;;16.75;100.00
6829;BME280;17930;48.592;8.868;2023-07-02T00:40:36;96218.47;;;16.64;100.00
6829;BME280;17930;48.592;8.868;2023-07-02T00:43:03;96227.56;;;16.87;100.00
6829;BME280;17930;48.592;8.868;2023-07-02T00:45:30;96231.31;;;16.66;100.00
6829;BME280;17930;48.592;8.868;2023-07-02T00:47:57;96229.81;;;16.56;100.00
6829;BME280;17930;48.592;8.868;2023-07-02T00:50:24;96232.41;;;16.44;100.00
6829;BME280;17930;48.592;8.868;2023-07-02T00:52:53;96240.22;;;16.33;100.00
6829;BME280;17930;48.592;8.868;2023-07-02T00:55:20;96242.41;;;16.31;100.00
6829;BME280;17930;48.592;8.868;2023-07-02T00:57:47;96237.81;;;16.19;100.00
6829;BME280;17930;48.592;8.868;2023-07-02T01:00:15;96237.53;;;16.12;100.00
6829;BME280;17930;48.592;8.868;2023-07-02T01:02:42;96244.72;;;16.03;100.00
6829;BME280;17930;48.592;8.868;2023-07-02T01:05:14;96236.59;;;15.88;100.00
6829;BME280;17930;48.592;8.868;2023-07-02T01:07:40;96240.38;;;15.70;100.00
6829;BME280;17930;48.592;8.868;2023-07-02T01:10:09;96248.19;;;15.50;100.00
6829;BME280;17930;48.592;8.868;2023-07-02T01:12:36;96242.63;;;15.51;100.00
6829;BME280;17930;48.592;8.868;2023-07-02T01:15:05;96243.88;;;15.45;100.00
6829;BME280;17930;48.592;8.868;2023-07-02T01:17:33;96238.66;;;15.29;100.00
6829;BME280;17930;48.592;8.868;2023-07-02T01:20:08;96237.59;;;15.21;100.00
6829;BME280;17930;48.592;8.868;2023-07-02T01:22:35;96239.75;;;15.19;100.00
6829;BME280;17930;48.592;8.868;2023-07-02T01:25:03;96238.38;;;15.05;100.00
6829;BME280;17930;48.592;8.868;2023-07-02T01:27:31;96235.88;;;15.00;100.00
6829;BME280;17930;48.592;8.868;2023-07-02T01:30:00;96230.97;;;14.90;100.00
6829;BME280;17930;48.592;8.868;2023-07-02T01:32:28;96238.06;;;14.98;100.00
6829;BME280;17930;48.592;8.868;2023-07-02T01:34:55;96249.50;;;14.93;100.00
6829;BME280;17930;48.592;8.868;2023-07-02T01:37:23;96251.19;;;14.98;100.00
6829;BME280;17930;48.592;8.868;2023-07-02T01:39:49;96253.69;;;14.94;100.00
6829;BME280;17930;48.592;8.868;2023-07-02T01:42:17;96252.16;;;14.77;100.00
6829;BME280;17930;48.592;8.868;2023-07-02T01:44:45;96254.59;;;14.73;100.00
6829;BME280;17930;48.592;8.868;2023-07-02T01:47:12;96254.00;;;14.76;100.00
6829;BME280;17930;48.592;8.868;2023-07-02T01:49:39;96251.81;;;14.86;100.00
6829;BME280;17930;48.592;8.868;2023-07-02T01:52:06;96248.44;;;14.94;100.00
6829;BME280;17930;48.592;8.868;2023-07-02T01:54:35;96245.50;;;14.96;100.00
6829;BME280;17930;48.592;8.868;2023-07-02T01:57:02;96243.16;;;15.03;100.00
6829;BME280;17930;48.592;8.868;2023-07-02T01:59:29;96240.53;;;15.03;100.00
6829;BME280;17930;48.592;8.868;2023-07-02T02:01:56;96238.81;;;15.07;100.00
6829;BME280;17930;48.592;8.868;2023-07-02T02:04:22;96230.22;;;15.52;100.00
6829;BME280;17930;48.592;8.868;2023-07-02T02:06:49;96237.06;;;15.44;100.00
6829;BME280;17930;48.592;8.868;2023-07-02T02:09:18;96241.09;;;15.34;100.00
6829;BME280;17930;48.592;8.868;2023-07-02T02:11:48;96237.84;;;15.37;100.00
6829;BME280;17930;48.592;8.868;2023-07-02T02:14:15;96235.50;;;15.43;100.00
6829;BME280;17930;48.592;8.868;2023-07-02T02:16:43;96234.03;;;15.71;100.00
6829;BME280;17930;48.592;8.868;2023-07-02T02:19:11;96238.22;;;15.72;100.00
6829;BME280;17930;48.592;8.868;2023-07-02T02:21:40;96237.56;;;15.75;100.00
6829;BME280;17930;48.592;8.868;2023-07-02T02:24:06;96241.16;;;15.71;100.00
6829;BME280;17930;48.592;8.868;2023-07-02T02:26:33;96230.75;;;15.74;100.00
6829;BME280;17930;48.592;8.868;2023-07-02T02:29:01;96237.28;;;15.68;100.00
6829;BME280;17930;48.592;8.868;2023-07-02T02:31:28;96233.44;;;15.66;100.00
6829;BME280;17930;48.592;8.868;2023-07-02T02:33:56;96243.19;;;15.65;100.00
6829;BME280;17930;48.592;8.868;2023-07-02T02:36:23;96237.78;;;15.62;100.00
6829;BME280;17930;48.592;8.868;2023-07-02T02:38:49;96246.75;;;15.69;100.00
6829;BME280;17930;48.592;8.868;2023-07-02T02:41:16;96248.94;;;15.88;100.00
6829;BME280;17930;48.592;8.868;2023-07-02T02:43:43;96257.19;;;15.78;100.00
6829;BME280;17930;48.592;8.868;2023-07-02T02:46:11;96252.09;;;15.81;100.00
6829;BME280;17930;48.592;8.868;2023-07-02T02:48:38;96247.59;;;15.82;100.00
6829;BME280;17930;48.592;8.868;2023-07-02T02:51:05;96240.38;;;15.70;100.00
6829;BME280;17930;48.592;8.868;2023-07-02T02:53:31;96251.09;;;15.57;100.00
6829;BME280;17930;48.592;8.868;2023-07-02T02:55:58;96254.84;;;15.47;100.00
6829;BME280;17930;48.592;8.868;2023-07-02T02:58:25;96261.97;;;15.47;100.00
6829;BME280;17930;48.592;8.868;2023-07-02T03:00:53;96268.28;;;15.46;100.00
6829;BME280;17930;48.592;8.868;2023-07-02T03:03:22;96273.41;;;15.42;100.00
6829;BME280;17930;48.592;8.868;2023-07-02T03:05:49;96269.38;;;15.37;100.00
6829;BME280;17930;48.592;8.868;2023-07-02T03:08:16;96272.34;;;15.27;100.00
6829;BME280;17930;48.592;8.868;2023-07-02T03:10:43;96270.50;;;15.27;100.00
6829;BME280;17930;48.592;8.868;2023-07-02T03:13:10;96275.28;;;15.25;100.00
6829;BME280;17930;48.592;8.868;2023-07-02T03:15:36;96279.16;;;15.28;100.00
6829;BME280;17930;48.592;8.868;2023-07-02T03:18:03;96287.22;;;15.23;100.00
6829;BME280;17930;48.592;8.868;2023-07-02T03:20:31;96285.34;;;15.32;100.00
6829;BME280;17930;48.592;8.868;2023-07-02T03:22:58;96282.53;;;15.28;100.00
6829;BME280;17930;48.592;8.868;2023-07-02T03:25:24;96290.28;;;15.25;100.00
6829;BME280;17930;48.592;8.868;2023-07-02T03:27:51;96286.91;;;15.24;100.00
6829;BME280;17930;48.592;8.868;2023-07-02T03:30:17;96286.88;;;15.16;100.00
6829;BME280;17930;48.592;8.868;2023-07-02T03:32:44;96289.03;;;15.14;100.00
6829;BME280;17930;48.592;8.868;2023-07-02T03:35:11;96295.38;;;15.13;100.00
6829;BME280;17930;48.592;8.868;2023-07-02T03:37:39;96291.03;;;15.08;100.00
6829;BME280;17930;48.592;8.868;2023-07-02T03:40:08;96301.88;;;15.07;100.00
6829;BME280;17930;48.592;8.868;2023-07-02T03:42:34;96300.47;;;15.01;100.00
6829;BME280;17930;48.592;8.868;2023-07-02T03:45:01;96311.59;;;14.98;100.00
6829;BME280;17930;48.592;8.868;2023-07-02T03:47:29;96302.97;;;15.06;100.00
6829;BME280;17930;48.592;8.868;2023-07-02T03:49:55;96307.28;;;15.02;100.00
6829;BME280;17930;48.592;8.868;2023-07-02T03:52:22;96297.72;;;15.06;100.00
6829;BME280;17930;48.592;8.868;2023-07-02T03:54:50;96308.38;;;15.01;100.00
6829;BME280;17930;48.592;8.868;2023-07-02T03:57:16;96305.13;;;15.04;100.00
6829;BME280;17930;48.592;8.868;2023-07-02T03:59:44;96322.44;;;15.05;100.00
6829;BME280;17930;48.592;8.868;2023-07-02T04:02:11;96316.88;;;14.98;100.00
6829;BME280;17930;48.592;8.868;2023-07-02T04:04:37;96323.97;;;15.06;100.00
6829;BME280;17930;48.592;8.868;2023-07-02T04:07:04;96324.13;;;15.09;100.00
6829;BME280;17930;48.592;8.868;2023-07-02T04:09:31;96336.00;;;15.07;100.00
6829;BME280;17930;48.592;8.868;2023-07-02T04:11:59;96338.31;;;15.00;100.00
6829;BME280;17930;48.592;8.868;2023-07-02T04:14:26;96337.13;;;14.97;100.00
6829;BME280;17930;48.592;8.868;2023-07-02T04:16:53;96338.94;;;14.88;100.00
6829;BME280;17930;48.592;8.868;2023-07-02T04:19:19;96344.06;;;14.85;100.00
6829;BME280;17930;48.592;8.868;2023-07-02T04:21:46;96349.63;;;14.92;100.00
6829;BME280;17930;48.592;8.868;2023-07-02T04:24:13;96345.63;;;15.03;100.00
6829;BME280;17930;48.592;8.868;2023-07-02T04:26:40;96342.81;;;15.08;100.00
6829;BME280;17930;48.592;8.868;2023-07-02T04:29:09;96342.19;;;15.11;100.00
6829;BME280;17930;48.592;8.868;2023-07-02T04:31:36;96343.75;;;15.12;100.00
6829;BME280;17930;48.592;8.868;2023-07-02T04:34:03;96347.63;;;15.14;100.00
6829;BME280;17930;48.592;8.868;2023-07-02T04:36:31;96350.28;;;15.23;100.00
6829;BME280;17930;48.592;8.868;2023-07-02T04:38:57;96346.72;;;15.27;100.00
6829;BME280;17930;48.592;8.868;2023-07-02T04:41:24;96342.22;;;15.28;100.00
6829;BME280;17930;48.592;8.868;2023-07-02T04:43:51;96345.78;;;15.23;100.00
6829;BME280;17930;48.592;8.868;2023-07-02T04:46:19;96358.44;;;15.13;100.00
6829;BME280;17930;48.592;8.868;2023-07-02T04:48:45;96359.34;;;15.17;100.00
6829;BME280;17930;48.592;8.868;2023-07-02T04:51:12;96362.78;;;15.34;100.00
6829;BME280;17930;48.592;8.868;2023-07-02T04:53:39;96355.66;;;15.51;100.00
6829;BME280;17930;48.592;8.868;2023-07-02T04:56:06;96355.34;;;15.61;100.00
6829;BME280;17930;48.592;8.868;2023-07-02T04:58:32;96367.09;;;15.55;100.00
6829;BME280;17930;48.592;8.868;2023-07-02T05:00:59;96360.63;;;15.44;100.00
6829;BME280;17930;48.592;8.868;2023-07-02T05:03:27;96371.44;;;15.35;100.00
6829;BME280;17930;48.592;8.868;2023-07-02T05:05:54;96379.19;;;15.23;100.00
6829;BME280;17930;48.592;8.868;2023-07-02T05:08:21;96380.09;;;15.18;100.00
6829;BME280;17930;48.592;8.868;2023-07-02T05:10:48;96369.28;;;15.28;100.00
6829;BME280;17930;48.592;8.868;2023-07-02T05:13:14;96383.03;;;15.42;100.00
6829;BME280;17930;48.592;8.868;2023-07-02T05:15:41;96376.97;;;15.67;100.00
6829;BME280;17930;48.592;8.868;2023-07-02T05:18:08;96371.00;;;16.03;100.00
6829;BME280;17930;48.592;8.868;2023-07-02T05:20:36;96379.25;;;15.93;100.00
6829;BME280;17930;48.592;8.868;2023-07-02T05:23:03;96377.72;;;15.84;100.00
6829;BME280;17930;48.592;8.868;2023-07-02T05:25:29;96383.75;;;15.76;100.00
6829;BME280;17930;48.592;8.868;2023-07-02T05:27:57;96389.78;;;15.93;100.00
6829;BME280;17930;48.592;8.868;2023-07-02T05:30:24;96388.53;;;15.91;100.00
6829;BME280;17930;48.592;8.868;2023-07-02T05:32:51;96390.41;;;15.82;100.00
6829;BME280;17930;48.592;8.868;2023-07-02T05:35:18;96384.34;;;15.90;100.00
6829;BME280;17930;48.592;8.868;2023-07-02T05:37:46;96380.13;;;16.06;100.00
6829;BME280;17930;48.592;8.868;2023-07-02T05:40:13;96390.09;;;16.38;100.00
6829;BME280;17930;48.592;8.868;2023-07-02T05:42:39;96381.50;;;16.57;100.00
6829;BME280;17930;48.592;8.868;2023-07-02T05:45:09;96389.09;;;16.79;100.00
6829;BME280;17930;48.592;8.868;2023-07-02T05:47:36;96387.88;;;17.26;100.00
6829;BME280;17930;48.592;8.868;2023-07-02T05:50:03;96380.06;;;17.38;100.00
6829;BME280;17930;48.592;8.868;2023-07-02T05:52:30;96379.78;;;17.31;100.00
6829;BME280;17930;48.592;8.868;2023-07-02T05:54:58;96383.25;;;17.23;100.00
6829;BME280;17930;48.592;8.868;2023-07-02T05:57:24;96391.88;;;17.32;100.00
6829;BME280;17930;48.592;8.868;2023-07-02T05:59:51;96394.84;;;17.50;100.00
6829;BME280;17930;48.592;8.868;2023-07-02T06:02:18;96396.69;;;17.82;100.00
6829;BME280;17930;48.592;8.868;2023-07-02T06:04:44;96389.59;;;17.95;100.00
6829;BME280;17930;48.592;8.868;2023-07-02T06:07:11;96391.47;;;18.06;100.00
6829;BME280;17930;48.592;8.868;2023-07-02T06:09:38;96400.97;;;17.75;100.00
6829;BME280;17930;48.592;8.868;2023-07-02T06:12:06;96396.94;;;17.89;100.00
6829;BME280;17930;48.592;8.868;2023-07-02T06:14:33;96390.91;;;18.80;100.00
6829;BME280;17930;48.592;8.868;2023-07-02T06:16:59;96404.13;;;19.16;100.00
6829;BME280;17930;48.592;8.868;2023-07-02T06:19:26;96402.84;;;19.37;100.00
6829;BME280;17930;48.592;8.868;2023-07-02T06:21:53;96412.06;;;19.04;100.00
6829;BME280;17930;48.592;8.868;2023-07-02T06:24:19;96423.03;;;18.94;100.00
6829;BME280;17930;48.592;8.868;2023-07-02T06:26:46;96426.38;;;18.79;100.00
6829;BME280;17930;48.592;8.868;2023-07-02T06:29:14;96421.09;;;18.79;100.00
6829;BME280;17930;48.592;8.868;2023-07-02T06:31:40;96415.13;;;18.58;100.00
6829;BME280;17930;48.592;8.868;2023-07-02T06:34:07;96425.03;;;18.85;100.00
6829;BME280;17930;48.592;8.868;2023-07-02T06:36:34;96416.03;;;18.86;100.00
6829;BME280;17930;48.592;8.868;2023-07-02T06:39:01;96417.88;;;19.09;100.00
6829;BME280;17930;48.592;8.868;2023-07-02T06:41:27;96415.56;;;19.20;100.00
6829;BME280;17930;48.592;8.868;2023-07-02T06:43:54;96422.34;;;19.45;100.00
6829;BME280;17930;48.592;8.868;2023-07-02T06:46:22;96423.63;;;19.62;100.00
6829;BME280;17930;48.592;8.868;2023-07-02T06:48:49;96425.72;;;19.84;100.00
6829;BME280;17930;48.592;8.868;2023-07-02T06:51:16;96430.53;;;19.40;100.00
6829;BME280;17930;48.592;8.868;2023-07-02T06:53:44;96436.78;;;19.74;100.00
6829;BME280;17930;48.592;8.868;2023-07-02T06:56:10;96433.81;;;20.61;100.00
6829;BME280;17930;48.592;8.868;2023-07-02T06:58:39;96433.88;;;20.34;100.00
6829;BME280;17930;48.592;8.868;2023-07-02T07:01:05;96438.66;;;20.13;100.00
6829;BME280;17930;48.592;8.868;2023-07-02T07:03:34;96440.72;;;19.80;100.00
6829;BME280;17930;48.592;8.868;2023-07-02T07:06:01;96446.09;;;20.23;100.00
6829;BME280;17930;48.592;8.868;2023-07-02T07:08:28;96443.06;;;20.52;100.00
6829;BME280;17930;48.592;8.868;2023-07-02T07:10:55;96445.91;;;20.89;100.00
6829;BME280;17930;48.592;8.868;2023-07-02T07:13:22;96447.47;;;19.90;100.00
6829;BME280;17930;48.592;8.868;2023-07-02T07:15:49;96447.25;;;20.53;100.00
6829;BME280;17930;48.592;8.868;2023-07-02T07:18:15;96445.13;;;20.73;100.00
6829;BME280;17930;48.592;8.868;2023-07-02T07:20:45;96447.69;;;21.01;100.00
6829;BME280;17930;48.592;8.868;2023-07-02T07:23:12;96444.13;;;20.78;100.00
6829;BME280;17930;48.592;8.868;2023-07-02T07:25:38;96447.78;;;20.58;100.00
6829;BME280;17930;48.592;8.868;2023-07-02T07:28:05;96444.41;;;21.07;100.00
6829;BME280;17930;48.592;8.868;2023-07-02T07:30:31;96452.44;;;21.26;100.00
6829;BME280;17930;48.592;8.868;2023-07-02T07:32:58;96456.56;;;20.31;100.00
6829;BME280;17930;48.592;8.868;2023-07-02T07:35:25;96444.91;;;20.66;100.00
6829;BME280;17930;48.592;8.868;2023-07-02T07:37:53;96456.72;;;20.54;100.00
6829;BME280;17930;48.592;8.868;2023-07-02T07:40:19;96454.09;;;20.84;100.00
6829;BME280;17930;48.592;8.868;2023-07-02T07:42:46;96449.81;;;21.10;100.00
6829;BME280;17930;48.592;8.868;2023-07-02T07:45:13;96442.09;;;21.55;100.00
6829;BME280;17930;48.592;8.868;2023-07-02T07:47:40;96447.16;;;21.45;100.00
6829;BME280;17930;48.592;8.868;2023-07-02T07:50:07;96444.72;;;21.21;100.00
6829;BME280;17930;48.592;8.868;2023-07-02T07:52:37;96442.09;;;22.30;100.00
6829;BME280;17930;48.592;8.868;2023-07-02T07:55:06;96438.28;;;23.50;100.00
6829;BME280;17930;48.592;8.868;2023-07-02T07:57:34;96451.38;;;22.21;100.00
6829;BME280;17930;48.592;8.868;2023-07-02T08:00:01;96442.50;;;22.13;100.00
6829;BME280;17930;48.592;8.868;2023-07-02T08:02:29;96441.44;;;22.37;100.00
6829;BME280;17930;48.592;8.868;2023-07-02T08:04:56;96438.66;;;21.73;100.00
6829;BME280;17930;48.592;8.868;2023-07-02T08:07:23;96437.81;;;21.51;100.00
6829;BME280;17930;48.592;8.868;2023-07-02T08:09:50;96444.16;;;22.21;100.00
6829;BME280;17930;48.592;8.868;2023-07-02T08:12:18;96440.91;;;21.71;100.00
6829;BME280;17930;48.592;8.868;2023-07-02T08:14:44;96456.25;;;20.94;100.00
6829;BME280;17930;48.592;8.868;2023-07-02T08:17:11;96445.78;;;21.69;100.00
6829;BME280;17930;48.592;8.868;2023-07-02T08:19:38;96430.72;;;23.26;100.00
6829;BME280;17930;48.592;8.868;2023-07-02T08:22:05;96438.47;;;24.25;100.00
6829;BME280;17930;48.592;8.868;2023-07-02T08:24:31;96439.31;;;23.68;100.00
6829;BME280;17930;48.592;8.868;2023-07-02T08:26:59;96432.06;;;23.13;100.00
6829;BME280;17930;48.592;8.868;2023-07-02T08:29:29;96436.34;;;22.95;100.00
6829;BME280;17930;48.592;8.868;2023-07-02T08:31:55;96447.16;;;22.61;100.00
6829;BME280;17930;48.592;8.868;2023-07-02T08:34:22;96449.19;;;22.67;100.00
6829;BME280;17930;48.592;8.868;2023-07-02T08:36:49;96463.09;;;22.58;100.00
6829;BME280;17930;48.592;8.868;2023-07-02T08:39:17;96446.66;;;22.74;100.00
6829;BME280;17930;48.592;8.868;2023-07-02T08:41:45;96434.63;;;23.06;100.00
6829;BME280;17930;48.592;8.868;2023-07-02T08:44:12;96444.09;;;24.17;100.00
6829;BME280;17930;48.592;8.868;2023-07-02T08:46:41;96445.47;;;24.76;100.00
6829;BME280;17930;48.592;8.868;2023-07-02T08:49:09;96443.03;;;23.34;100.00
6829;BME280;17930;48.592;8.868;2023-07-02T08:51:36;96435.28;;;23.80;100.00
6829;BME280;17930;48.592;8.868;2023-07-02T08:54:03;96435.44;;;24.27;100.00
6829;BME280;17930;48.592;8.868;2023-07-02T08:56:30;96433.06;;;24.19;100.00
6829;BME280;17930;48.592;8.868;2023-07-02T08:58:56;96426.56;;;24.16;100.00
6829;BME280;17930;48.592;8.868;2023-07-02T09:01:23;96429.69;;;24.25;100.00
6829;BME280;17930;48.592;8.868;2023-07-02T09:03:51;96433.09;;;24.58;100.00
6829;BME280;17930;48.592;8.868;2023-07-02T09:06:18;96420.00;;;24.89;100.00
6829;BME280;17930;48.592;8.868;2023-07-02T09:08:45;96416.28;;;25.61;97.33
6829;BME280;17930;48.592;8.868;2023-07-02T09:11:13;96412.66;;;26.14;92.82
6829;BME280;17930;48.592;8.868;2023-07-02T09:13:48;96415.69;;;25.95;95.54
6829;BME280;17930;48.592;8.868;2023-07-02T09:16:25;96420.00;;;25.43;94.47
6829;BME280;17930;48.592;8.868;2023-07-02T09:19:01;96434.34;;;25.21;92.82
6829;BME280;17930;48.592;8.868;2023-07-02T09:21:38;96435.38;;;24.23;95.05
6829;BME280;17930;48.592;8.868;2023-07-02T09:24:14;96436.00;;;24.43;100.00
6829;BME280;17930;48.592;8.868;2023-07-02T09:26:44;96439.28;;;25.12;94.48
6829;BME280;17930;48.592;8.868;2023-07-02T09:29:12;96447.22;;;25.05;95.84
6829;BME280;17930;48.592;8.868;2023-07-02T09:31:45;96442.47;;;24.42;93.94
6829;BME280;17930;48.592;8.868;2023-07-02T09:34:14;96438.75;;;24.96;94.96
6829;BME280;17930;48.592;8.868;2023-07-02T09:36:41;96450.63;;;25.59;92.78
6829;BME280;17930;48.592;8.868;2023-07-02T09:39:11;96447.19;;;24.59;93.31
6829;BME280;17930;48.592;8.868;2023-07-02T09:41:39;96440.66;;;24.53;96.09
6829;BME280;17930;48.592;8.868;2023-07-02T09:44:07;96433.81;;;25.59;93.55
6829;BME280;17930;48.592;8.868;2023-07-02T09:46:37;96426.13;;;26.35;87.81
6829;BME280;17930;48.592;8.868;2023-07-02T09:49:05;96431.66;;;25.81;88.60
6829;BME280;17930;48.592;8.868;2023-07-02T09:51:36;96407.41;;;26.80;83.85
6829;BME280;17930;48.592;8.868;2023-07-02T09:54:02;96407.34;;;26.25;77.79
6829;BME280;17930;48.592;8.868;2023-07-02T09:56:29;96423.38;;;26.18;78.34
6829;BME280;17930;48.592;8.868;2023-07-02T09:58:56;96409.94;;;26.00;75.95
6829;BME280;17930;48.592;8.868;2023-07-02T10:01:22;96416.09;;;26.11;78.24
6829;BME280;17930;48.592;8.868;2023-07-02T10:03:49;96410.56;;;25.63;78.25
6829;BME280;17930;48.592;8.868;2023-07-02T10:06:16;96411.25;;;26.44;74.50
6829;BME280;17930;48.592;8.868;2023-07-02T10:08:53;96412.78;;;26.73;71.63
6829;BME280;17930;48.592;8.868;2023-07-02T10:11:32;96408.94;;;26.43;70.83
6829;BME280;17930;48.592;8.868;2023-07-02T10:13:59;96407.25;;;25.86;74.22
6829;BME280;17930;48.592;8.868;2023-07-02T10:16:26;96412.78;;;26.56;72.04
6829;BME280;17930;48.592;8.868;2023-07-02T10:18:53;96416.97;;;26.60;73.16
6829;BME280;17930;48.592;8.868;2023-07-02T10:21:20;96414.56;;;26.10;72.14
6829;BME280;17930;48.592;8.868;2023-07-02T10:23:47;96416.59;;;26.55;72.02
6829;BME280;17930;48.592;8.868;2023-07-02T10:26:17;96420.03;;;26.52;67.39
6829;BME280;17930;48.592;8.868;2023-07-02T10:28:56;96427.28;;;25.46;70.01
6829;BME280;17930;48.592;8.868;2023-07-02T10:31:22;96424.16;;;26.15;68.55
6829;BME280;17930;48.592;8.868;2023-07-02T10:33:49;96418.91;;;26.53;68.35
6829;BME280;17930;48.592;8.868;2023-07-02T10:36:19;96419.47;;;25.87;70.06
6829;BME280;17930;48.592;8.868;2023-07-02T10:38:47;96414.28;;;26.36;68.00
6829;BME280;17930;48.592;8.868;2023-07-02T10:41:25;96423.78;;;26.23;69.55
6829;BME280;17930;48.592;8.868;2023-07-02T10:43:52;96421.56;;;26.46;69.92
6829;BME280;17930;48.592;8.868;2023-07-02T10:46:19;96421.84;;;26.27;67.17
6829;BME280;17930;48.592;8.868;2023-07-02T10:48:53;96413.56;;;27.01;66.48
6829;BME280;17930;48.592;8.868;2023-07-02T10:51:19;96409.72;;;27.09;65.50
6829;BME280;17930;48.592;8.868;2023-07-02T10:53:56;96407.41;;;26.59;66.04
6829;BME280;17930;48.592;8.868;2023-07-02T10:56:24;96404.34;;;26.82;65.50
6829;BME280;17930;48.592;8.868;2023-07-02T10:58:51;96410.47;;;26.51;66.71
6829;BME280;17930;48.592;8.868;2023-07-02T11:01:22;96405.13;;;26.82;64.90
6829;BME280;17930;48.592;8.868;2023-07-02T11:03:55;96401.66;;;28.29;64.10
6829;BME280;17930;48.592;8.868;2023-07-02T11:06:22;96411.06;;;27.80;62.21
6829;BME280;17930;48.592;8.868;2023-07-02T11:08:49;96407.75;;;28.33;61.01
6829;BME280;17930;48.592;8.868;2023-07-02T11:11:15;96404.59;;;27.74;62.24
6829;BME280;17930;48.592;8.868;2023-07-02T11:13:47;96404.75;;;28.24;62.02
6829;BME280;17930;48.592;8.868;2023-07-02T11:16:19;96402.69;;;28.99;60.07
6829;BME280;17930;48.592;8.868;2023-07-02T11:18:48;96404.59;;;28.52;59.97
6829;BME280;17930;48.592;8.868;2023-07-02T11:21:15;96397.91;;;28.09;59.53
6829;BME280;17930;48.592;8.868;2023-07-02T11:23:41;96404.66;;;27.46;61.77
6829;BME280;17930;48.592;8.868;2023-07-02T11:26:08;96396.56;;;27.70;62.91
6829;BME280;17930;48.592;8.868;2023-07-02T11:28:35;96387.97;;;28.71;59.29
6829;BME280;17930;48.592;8.868;2023-07-02T11:31:03;96388.56;;;28.89;56.22
6829;BME280;17930;48.592;8.868;2023-07-02T11:33:35;96394.72;;;28.35;57.83
6829;BME280;17930;48.592;8.868;2023-07-02T11:36:02;96404.91;;;27.93;59.45
6829;BME280;17930;48.592;8.868;2023-07-02T11:38:28;96400.41;;;28.44;57.28
6829;BME280;17930;48.592;8.868;2023-07-02T11:40:55;96397.28;;;27.85;56.80
6829;BME280;17930;48.592;8.868;2023-07-02T11:43:22;96386.16;;;28.54;57.26
6829;BME280;17930;48.592;8.868;2023-07-02T11:45:49;96387.69;;;28.98;55.23
6829;BME280;17930;48.592;8.868;2023-07-02T11:48:17;96386.25;;;29.31;53.66
6829;BME280;17930;48.592;8.868;2023-07-02T11:50:45;96378.19;;;29.34;52.02
6829;BME280;17930;48.592;8.868;2023-07-02T11:53:12;96387.44;;;29.63;52.86
6829;BME280;17930;48.592;8.868;2023-07-02T11:55:39;96391.91;;;27.85;56.35
6829;BME280;17930;48.592;8.868;2023-07-02T11:58:06;96391.91;;;27.85;58.78
6829;BME280;17930;48.592;8.868;2023-07-02T12:00:32;96381.88;;;29.07;53.43
6829;BME280;17930;48.592;8.868;2023-07-02T12:02:59;96382.63;;;29.81;51.05
6829;BME280;17930;48.592;8.868;2023-07-02T12:05:27;96389.06;;;28.77;52.81
6829;BME280;17930;48.592;8.868;2023-07-02T12:07:54;96391.63;;;29.34;52.53
6829;BME280;17930;48.592;8.868;2023-07-02T12:10:20;96392.47;;;29.24;51.52
6829;BME280;17930;48.592;8.868;2023-07-02T12:12:47;96384.47;;;29.17;50.76
6829;BME280;17930;48.592;8.868;2023-07-02T12:15:14;96387.41;;;28.93;52.52
6829;BME280;17930;48.592;8.868;2023-07-02T12:17:40;96375.44;;;29.71;51.33
6829;BME280;17930;48.592;8.868;2023-07-02T12:20:08;96382.66;;;29.07;51.12
6829;BME280;17930;48.592;8.868;2023-07-02T12:22:36;96377.13;;;29.58;49.70
6829;BME280;17930;48.592;8.868;2023-07-02T12:25:04;96364.97;;;30.36;48.23
6829;BME280;17930;48.592;8.868;2023-07-02T12:27:31;96366.72;;;29.60;49.89
6829;BME280;17930;48.592;8.868;2023-07-02T12:29:58;96376.53;;;30.33;49.32
6829;BME280;17930;48.592;8.868;2023-07-02T12:32:25;96378.28;;;29.57;48.86
6829;BME280;17930;48.592;8.868;2023-07-02T12:34:51;96376.00;;;29.55;48.43
6829;BME280;17930;48.592;8.868;2023-07-02T12:37:18;96372.59;;;28.75;49.86
6829;BME280;17930;48.592;8.868;2023-07-02T12:39:47;96386.31;;;29.27;48.85
6829;BME280;17930;48.592;8.868;2023-07-02T12:42:14;96376.44;;;28.70;49.64
6829;BME280;17930;48.592;8.868;2023-07-02T12:44:40;96367.50;;;29.27;49.39
6829;BME280;17930;48.592;8.868;2023-07-02T12:47:07;96372.06;;;29.97;49.49
6829;BME280;17930;48.592;8.868;2023-07-02T12:49:34;96378.41;;;30.62;46.54
6829;BME280;17930;48.592;8.868;2023-07-02T12:52:01;96365.75;;;30.36;46.84
6829;BME280;17930;48.592;8.868;2023-07-02T12:54:28;96367.81;;;29.99;47.17
6829;BME280;17930;48.592;8.868;2023-07-02T12:56:56;96357.69;;;30.06;47.16
6829;BME280;17930;48.592;8.868;2023-07-02T12:59:22;96372.28;;;29.76;46.28
6829;BME280;17930;48.592;8.868;2023-07-02T13:01:49;96373.38;;;29.85;46.62
6829;BME280;17930;48.592;8.868;2023-07-02T13:04:16;96362.91;;;29.91;46.35